Auburn, AL

4:06 PM CDT on August 30, 2015 (GMT -0500)
Auburn-opelika-pitts | | Change Station
CLOSE
Current Station
Airport
Location: Auburn,
Elevation: 774 ft
Nearby Weather Stations

Elev 774 ft 32.62 °N, 85.43 °W | Updated 10 minutes ago

Overcast
Overcast
82 °F
Feels Like 86 °F
N
7
Wind Variable Wind from WNW

Today
High -- | Low -- °F
--% Chance of Precip.
Yesterday
High -- | Low -- °F
Precip. -- in
6:15 AM 7:09 PM
Full, 98% visible
Pressure 30.08 in
Visibility -9999.0 miles
Clouds Scattered Clouds 3300 ft
Mostly Cloudy 4400 ft
Mostly Cloudy 5500 ft
Heat Index 86 °F
Dew Point 70 °F
Humidity 67%
Rainfall 0.74 in
Snow Depth Not available.
UV 3 out of 12
Pollen 7.70 out of 12
Air Quality Not available.
Flu Activity Not available.
METAR KAUO 302056Z AUTO 30006KT SCT033 BKN044 BKN055 28/21 A3005 RMK AO2 SLP185 T02780211 57014 PWINO $
Pressure 30.08 in
Visibility -9999.0 miles
Clouds Scattered Clouds 3300 ft
Mostly Cloudy 4400 ft
Mostly Cloudy 5500 ft
Heat Index 86 °F
Dew Point 70 °F
Humidity 67%
Rainfall 0.74 in
Snow Depth Not available.
UV 3 out of 12
Pollen 7.70 out of 12
Air Quality Not available.
Flu Activity Not available.
METAR KAUO 302056Z AUTO 30006KT SCT033 BKN044 BKN055 28/21 A3005 RMK AO2 SLP185 T02780211 57014 PWINO $

10-Day Weather Forecast

×

Almanac

Astronomy

Aug. 30, 2015 Rise Set
Actual Time
Civil Twilight
Nautical Twilight
Astronomical Twilight
Moon
Length of Visible Light
Length of Day
Tomorrow will be .
, % of the Moon is Illuminated

Today's Extremes

State Highs State Lows

Community

WunderPhotos

Upload Photos

1,851,060 photos uploaded!

WunderBlogs® & News

Nearby

Air Quality

  Air Quality AQ Index Pollutant
Not available.

Snow Depth

Station Depth Elevation

Earthquake Activity

City Distance Mag. Time & Date
Minimum magnitude displayed is 2.5.

Coastal Water Temperatures

Place Temperature

Stations

Nearby Weather Stations

Station Location Temp. Windchill Dew Point Humidity Wind Precip. Elev Updated Type